Orbital elements of FENGYUN 1C DEB
| Launched | 9 May 1999 |
| Flight ended | – |
| Launch site | Taiyuan Space Center, PRC |
| Owner | People's Republic of China |
| NORAD ID | 30291 |
| Date fetched |
Epoch osculation |
Inc. [°] |
Ecc. | RA asc node [hr] |
Arg Peri. [°] |
Mean anom [°] |
Mean motion [rev/day] |
Abs. mag |
| Date fetched |
Epoch osculation |
Inc. [°] |
Ecc. | RA asc node [hr] |
Arg Peri. [°] |
Mean anom [°] |
Mean motion [rev/day] |
Abs. mag |
| 2026 May 05 17:57 | 2026 May 05 03:12:05 | 97.2224 | 0.01020 | 0.0078 | 283.3657 | 231.2051 | 14.58862 | – |
| 2026 May 04 17:57 | 2026 Apr 30 09:43:28 | 97.2239 | 0.01028 | 23.7334 | 298.6822 | 231.2051 | 14.58862 | – |
| 2026 May 03 17:57 | 2026 Apr 30 09:43:28 | 97.2239 | 0.01028 | 23.7334 | 298.6822 | 231.2051 | 14.58862 | – |
| 2026 May 02 17:57 | 2026 Apr 30 09:43:28 | 97.2239 | 0.01028 | 23.7334 | 298.6822 | 231.2051 | 14.58862 | – |
| 2026 May 01 17:56 | 2026 Apr 30 09:43:28 | 97.2239 | 0.01028 | 23.7334 | 298.6822 | 231.2051 | 14.58862 | – |
| 2026 Apr 30 17:56 | 2026 Apr 30 09:43:28 | 97.2239 | 0.01028 | 23.7334 | 298.6822 | 231.2051 | 14.58862 | – |
| 2026 Apr 29 17:57 | 2026 Apr 24 05:19:47 | 97.2243 | 0.01038 | 23.3746 | 318.5862 | 231.2051 | 14.58862 | – |
| 2026 Apr 28 17:56 | 2026 Apr 24 05:19:47 | 97.2243 | 0.01038 | 23.3746 | 318.5862 | 231.2051 | 14.58862 | – |
| 2026 Apr 27 17:58 | 2026 Apr 24 05:19:47 | 97.2243 | 0.01038 | 23.3746 | 318.5862 | 231.2051 | 14.58862 | – |
| 2026 Apr 26 17:58 | 2026 Apr 24 05:19:47 | 97.2243 | 0.01038 | 23.3746 | 318.5862 | 231.2051 | 14.58862 | – |
| 2026 Apr 25 17:58 | 2026 Apr 24 05:19:47 | 97.2243 | 0.01038 | 23.3746 | 318.5862 | 231.2051 | 14.58862 | – |
| 2026 Apr 24 17:59 | 2026 Apr 24 05:19:47 | 97.2243 | 0.01038 | 23.3746 | 318.5862 | 231.2051 | 14.58862 | – |
| 2026 Apr 23 17:57 | 2026 Apr 19 03:36:09 | 97.2245 | 0.01047 | 23.0805 | 334.6920 | 231.2051 | 14.58862 | – |
| 2026 Apr 22 17:57 | 2026 Apr 19 03:36:09 | 97.2245 | 0.01047 | 23.0805 | 334.6920 | 231.2051 | 14.58862 | – |
| 2026 Apr 21 17:57 | 2026 Apr 19 03:36:09 | 97.2245 | 0.01047 | 23.0805 | 334.6920 | 231.2051 | 14.58862 | – |
| 2026 Apr 20 17:57 | 2026 Apr 19 03:36:09 | 97.2245 | 0.01047 | 23.0805 | 334.6920 | 231.2051 | 14.58862 | – |
| 2026 Apr 19 17:58 | 2026 Apr 19 03:36:09 | 97.2245 | 0.01047 | 23.0805 | 334.6920 | 231.2051 | 14.58862 | – |
| 2026 Apr 18 17:56 | 2026 Apr 13 02:44:21 | 97.2261 | 0.01055 | 22.7303 | 353.7799 | 231.2051 | 14.58862 | – |
| 2026 Apr 16 17:57 | 2026 Apr 13 02:44:21 | 97.2261 | 0.01055 | 22.7303 | 353.7799 | 231.2051 | 14.58862 | – |
| 2026 Apr 14 17:57 | 2026 Apr 13 02:44:21 | 97.2261 | 0.01055 | 22.7303 | 353.7799 | 231.2051 | 14.58862 | – |
| 2026 Apr 13 17:57 | 2026 Apr 13 02:44:21 | 97.2261 | 0.01055 | 22.7303 | 353.7799 | 231.2051 | 14.58862 | – |
| 2026 Apr 12 17:57 | 2026 Apr 08 15:14:02 | 97.2245 | 0.01061 | 22.4705 | 7.8499 | 231.2051 | 14.58862 | – |
| 2026 Apr 11 17:57 | 2026 Apr 08 15:14:02 | 97.2245 | 0.01061 | 22.4705 | 7.8499 | 231.2051 | 14.58862 | – |
| 2026 Apr 10 17:58 | 2026 Apr 08 15:14:02 | 97.2245 | 0.01061 | 22.4705 | 7.8499 | 231.2051 | 14.58862 | – |
| 2026 Apr 09 18:01 | 2026 Apr 08 15:14:02 | 97.2245 | 0.01061 | 22.4705 | 7.8499 | 231.2051 | 14.58862 | – |
| 2026 Apr 08 17:57 | 2026 Apr 08 15:14:02 | 97.2245 | 0.01061 | 22.4705 | 7.8499 | 231.2051 | 14.58862 | – |